createdAt,value
2017-08-22T00:00:08.156Z,14.3
2017-08-22T00:05:02.928Z,14.3
2017-08-22T00:10:05.723Z,14.3
2017-08-22T00:15:05.050Z,14.3
2017-08-22T00:20:02.984Z,14.2
2017-08-22T00:25:05.289Z,14.2
2017-08-22T00:30:03.040Z,14.2
2017-08-22T00:35:05.351Z,14.2
2017-08-22T00:40:05.182Z,14.2
2017-08-22T00:45:05.470Z,14.1
2017-08-22T00:50:18.443Z,14.1
2017-08-22T00:55:03.243Z,14.1
2017-08-22T01:00:05.569Z,14.1
2017-08-22T01:05:05.866Z,14
2017-08-22T01:10:03.129Z,14
2017-08-22T01:15:07.971Z,13.9
2017-08-22T01:20:05.354Z,13.9
2017-08-22T01:25:05.663Z,13.9
2017-08-22T01:30:10.041Z,13.8
2017-08-22T01:35:18.312Z,13.8
2017-08-22T01:40:05.106Z,13.8
2017-08-22T01:45:10.506Z,13.7
2017-08-22T01:50:07.773Z,13.7
2017-08-22T01:55:05.114Z,13.6
2017-08-22T02:00:02.899Z,13.6
2017-08-22T02:05:05.234Z,13.6
2017-08-22T02:10:05.013Z,13.5
2017-08-22T02:15:02.760Z,13.5
2017-08-22T02:20:05.193Z,13.5
2017-08-22T02:25:05.620Z,13.4
2017-08-22T02:30:04.958Z,13.4
2017-08-22T02:35:07.808Z,13.4
2017-08-22T02:40:05.610Z,13.3
2017-08-22T02:45:12.526Z,13.3
2017-08-22T02:50:03.286Z,13.3
2017-08-22T02:55:03.062Z,13.3
2017-08-22T03:00:02.844Z,13.3
2017-08-22T03:05:02.597Z,13.2
2017-08-22T03:10:02.850Z,13.2
2017-08-22T03:15:15.335Z,13.1
2017-08-22T03:20:03.170Z,13.1
2017-08-22T03:25:02.952Z,13.1
2017-08-22T03:30:05.260Z,12.9
2017-08-22T03:35:03.041Z,12.9
2017-08-22T03:40:10.925Z,12.8
2017-08-22T03:45:02.897Z,12.9
2017-08-22T03:50:07.721Z,12.9
2017-08-22T03:55:02.490Z,12.9
2017-08-22T04:00:03.254Z,12.8
2017-08-22T04:05:03.011Z,12.9
2017-08-22T04:10:03.279Z,12.8
2017-08-22T04:15:05.607Z,12.8
2017-08-22T04:20:08.087Z,12.8
2017-08-22T04:25:05.401Z,12.8
2017-08-22T04:30:03.164Z,12.8
2017-08-22T04:35:02.953Z,12.8
2017-08-22T04:40:03.204Z,12.9
2017-08-22T04:45:08.027Z,12.9
2017-08-22T04:50:02.801Z,12.9
2017-08-22T04:55:02.580Z,12.9
2017-08-22T05:00:05.908Z,12.9
2017-08-22T05:05:02.701Z,12.9
2017-08-22T05:10:02.951Z,12.9
2017-08-22T05:15:02.757Z,12.9
2017-08-22T05:20:07.733Z,13
2017-08-22T05:25:07.597Z,13
2017-08-22T05:30:20.096Z,13
2017-08-22T05:35:02.882Z,13
2017-08-22T05:40:05.715Z,13.1
2017-08-22T05:45:05.030Z,13.1
2017-08-22T05:50:12.945Z,13.1
2017-08-22T05:55:02.744Z,13.1
2017-08-22T06:00:02.535Z,13.1
2017-08-22T06:05:05.870Z,13.2
2017-08-22T06:10:05.740Z,13.2
2017-08-22T06:15:02.553Z,13.2
2017-08-22T06:20:02.391Z,13.3
2017-08-22T06:25:03.221Z,13.3
2017-08-22T06:30:05.172Z,13.5
2017-08-22T06:35:05.543Z,13.6
2017-08-22T06:40:02.769Z,13.6
2017-08-22T06:45:02.557Z,13.7
2017-08-22T06:50:05.862Z,14.1
2017-08-22T06:55:20.329Z,14.1
2017-08-22T07:00:15.906Z,14.2
2017-08-22T07:05:02.703Z,14.2
2017-08-22T07:10:08.066Z,14.4
2017-08-22T07:15:02.830Z,14.4
2017-08-22T07:20:12.803Z,14.7
2017-08-22T07:25:05.101Z,14.9
2017-08-22T07:30:05.416Z,15.1
2017-08-22T07:35:03.204Z,15.1
2017-08-22T07:40:07.520Z,15.4
2017-08-22T07:45:26.067Z,15.5
2017-08-22T07:50:12.966Z,14.8
2017-08-22T07:55:05.261Z,15.7
2017-08-22T08:00:10.633Z,15.7
2017-08-22T08:05:02.417Z,15.7
2017-08-22T08:10:02.647Z,15.8
2017-08-22T08:15:02.426Z,15.8
2017-08-22T08:20:08.349Z,15.6
2017-08-22T08:25:08.210Z,15.6
2017-08-22T08:30:10.588Z,15.5
2017-08-22T08:35:07.445Z,15.4
2017-08-22T08:40:02.703Z,15.4
2017-08-22T08:45:04.993Z,15.5
2017-08-22T08:50:02.763Z,15.5
2017-08-22T08:55:07.628Z,15.8
2017-08-22T09:00:13.025Z,16.1
2017-08-22T09:05:10.359Z,16.2
2017-08-22T09:10:22.852Z,16.4
2017-08-22T09:15:02.607Z,16.4
2017-08-22T09:20:02.453Z,16.4
2017-08-22T09:25:03.237Z,16.5
2017-08-22T09:30:08.109Z,16.7
2017-08-22T09:35:08.238Z,16.8
2017-08-22T09:40:07.541Z,17
2017-08-22T09:45:08.398Z,17
2017-08-22T09:50:08.241Z,17
2017-08-22T09:55:10.609Z,17.1
2017-08-22T10:00:02.413Z,17.1
2017-08-22T10:05:03.188Z,17.3
2017-08-22T10:10:02.433Z,17.4
2017-08-22T10:15:03.253Z,17.4
2017-08-22T10:20:05.625Z,17.3
2017-08-22T10:25:10.038Z,17.2
2017-08-22T10:30:02.825Z,17.2
2017-08-22T10:35:10.246Z,17.3
2017-08-22T10:40:05.000Z,17.4
2017-08-22T10:45:10.382Z,17.5
2017-08-22T10:50:03.154Z,17.5
2017-08-22T10:55:05.446Z,17.6
2017-08-22T11:00:13.358Z,17.7
2017-08-22T11:05:05.689Z,17.9
2017-08-22T11:10:08.024Z,18
2017-08-22T11:15:05.303Z,18
2017-08-22T11:20:03.164Z,17.9
2017-08-22T11:25:10.518Z,17.9
2017-08-22T11:30:05.834Z,18
2017-08-22T11:35:15.295Z,18
2017-08-22T11:40:02.541Z,18
2017-08-22T11:45:08.370Z,18.1
2017-08-22T11:50:05.669Z,18
2017-08-22T11:55:05.000Z,18.1
2017-08-22T12:00:07.863Z,18.3
2017-08-22T12:05:07.705Z,18.4
2017-08-22T12:10:02.969Z,18.4
2017-08-22T12:15:05.319Z,18.6
2017-08-22T12:20:08.243Z,18.8
2017-08-22T12:25:03.053Z,18.8
2017-08-22T12:30:05.369Z,18.9
2017-08-22T12:35:05.683Z,19.1
2017-08-22T12:40:02.947Z,19
2017-08-22T12:45:02.781Z,19.2
2017-08-22T12:50:02.574Z,19.3
2017-08-22T12:55:02.762Z,19.2
2017-08-22T13:00:02.542Z,19.2
2017-08-22T13:05:07.502Z,19.4
2017-08-22T13:10:02.734Z,19.4
2017-08-22T13:15:07.564Z,19.9
2017-08-22T13:20:05.010Z,19.9
2017-08-22T13:25:02.816Z,19.9
2017-08-22T13:30:02.584Z,20.1
2017-08-22T13:35:05.882Z,22
2017-08-22T13:40:05.653Z,23.2
2017-08-22T13:45:02.473Z,23.1
2017-08-22T13:50:03.278Z,24.4
2017-08-22T13:55:18.214Z,24.3
2017-08-22T14:00:05.521Z,24.4
2017-08-22T14:05:03.306Z,24.4
2017-08-22T14:10:07.612Z,23.7
2017-08-22T14:15:07.474Z,22.1
2017-08-22T14:20:02.473Z,22.1
2017-08-22T14:25:05.791Z,20.3
2017-08-22T14:30:05.082Z,19.9
2017-08-22T14:35:02.894Z,19.9
2017-08-22T14:40:28.463Z,19.6
2017-08-22T14:45:05.778Z,19.5
2017-08-22T14:50:12.682Z,19.4
2017-08-22T14:55:07.501Z,20
2017-08-22T15:00:10.874Z,20.8
2017-08-22T15:05:07.730Z,21.1
2017-08-22T15:10:08.039Z,20.9
2017-08-22T15:15:15.477Z,20.2
2017-08-22T15:20:08.337Z,19.9
2017-08-22T15:25:03.096Z,19.9
2017-08-22T15:30:02.884Z,19.6
2017-08-22T15:35:02.665Z,19.6
2017-08-22T15:40:18.122Z,19.8
2017-08-22T15:45:02.894Z,19.8
2017-08-22T15:50:07.758Z,20.2
2017-08-22T15:55:05.054Z,20.1
2017-08-22T16:00:02.866Z,20.1
2017-08-22T16:05:05.470Z,20
2017-08-22T16:10:05.265Z,20
2017-08-22T16:15:05.572Z,20.1
2017-08-22T16:20:04.960Z,20.2
2017-08-22T16:25:12.874Z,20.2
2017-08-22T16:30:17.882Z,20.4
2017-08-22T16:35:02.652Z,20.3
2017-08-22T16:40:07.955Z,20.2
2017-08-22T16:45:02.749Z,20.1
2017-08-22T16:50:02.547Z,20
2017-08-22T16:55:08.379Z,19.7
2017-08-22T17:00:05.678Z,19.6
2017-08-22T17:05:02.445Z,19.6
2017-08-22T17:10:20.402Z,19.2
2017-08-22T17:15:08.250Z,19
2017-08-22T17:20:03.145Z,19
2017-08-22T17:25:15.583Z,18.8
2017-08-22T17:30:20.100Z,18.8
2017-08-22T17:35:05.428Z,18.8
2017-08-22T17:40:02.673Z,18.7
2017-08-22T17:45:07.525Z,18.5
2017-08-22T17:50:03.311Z,18.6
2017-08-22T17:55:08.189Z,18.3
2017-08-22T18:00:02.952Z,18.4
2017-08-22T18:05:07.817Z,18.2
2017-08-22T18:10:05.622Z,18.1
2017-08-22T18:15:04.920Z,18
2017-08-22T18:20:07.844Z,17.8
2017-08-22T18:25:05.141Z,17.7
2017-08-22T18:30:02.909Z,17.7
2017-08-22T18:35:07.751Z,17.3
2017-08-22T18:40:08.060Z,17.1
2017-08-22T18:45:05.393Z,17
2017-08-22T18:50:08.272Z,16.8
2017-08-22T18:55:05.559Z,16.7
2017-08-22T19:00:10.947Z,16.5
2017-08-22T19:05:05.241Z,16.4
2017-08-22T19:10:02.506Z,16.3
2017-08-22T19:15:10.852Z,16.1
2017-08-22T19:20:02.688Z,16.1
2017-08-22T19:25:05.020Z,15.9
2017-08-22T19:30:02.828Z,15.8
2017-08-22T19:35:02.607Z,15.8
2017-08-22T19:40:05.426Z,15.6
2017-08-22T19:45:03.175Z,15.6
2017-08-22T19:50:18.168Z,15.4
2017-08-22T19:55:18.120Z,15.3
2017-08-22T20:00:02.883Z,15.3
2017-08-22T20:05:05.223Z,15.1
2017-08-22T20:10:07.552Z,15
2017-08-22T20:15:08.417Z,14.9
2017-08-22T20:20:03.271Z,14.9
2017-08-22T20:25:05.599Z,14.7
2017-08-22T20:30:05.883Z,14.6
2017-08-22T20:35:05.198Z,14.5
2017-08-22T20:40:02.454Z,14.5
2017-08-22T20:45:10.859Z,14.3
2017-08-22T20:50:12.759Z,14.2
2017-08-22T20:55:05.110Z,14.2
2017-08-22T21:00:07.950Z,14.1
2017-08-22T21:05:22.971Z,14.1
2017-08-22T21:10:03.225Z,14.1
2017-08-22T21:15:05.538Z,14
2017-08-22T21:20:04.914Z,13.9
2017-08-22T21:25:05.292Z,13.8
2017-08-22T21:30:03.065Z,13.8
2017-08-22T21:35:05.370Z,13.7
2017-08-22T21:40:02.592Z,13.7
2017-08-22T21:45:04.942Z,13.7
2017-08-22T21:50:05.281Z,13.6
2017-08-22T21:55:03.065Z,13.6
2017-08-22T22:00:02.858Z,13.5
2017-08-22T22:05:05.151Z,13.4
2017-08-22T22:10:07.455Z,13.3
2017-08-22T22:15:10.861Z,13.2
2017-08-22T22:20:22.971Z,13.1
2017-08-22T22:25:05.279Z,13.1
2017-08-22T22:30:05.603Z,13.1
2017-08-22T22:35:07.574Z,13
2017-08-22T22:40:02.816Z,13
2017-08-22T22:45:05.118Z,13
2017-08-22T22:50:30.745Z,12.9
2017-08-22T22:55:05.092Z,12.9
2017-08-22T23:00:02.888Z,12.9
2017-08-22T23:05:02.661Z,12.9
2017-08-22T23:10:02.913Z,12.8
2017-08-22T23:15:07.822Z,12.7
2017-08-22T23:20:02.672Z,12.6
2017-08-22T23:25:20.208Z,12.6
2017-08-22T23:30:05.510Z,12.6
2017-08-22T23:35:03.297Z,12.6
2017-08-22T23:40:05.102Z,12.5
2017-08-22T23:45:05.397Z,12.4
2017-08-22T23:50:08.269Z,12.4
2017-08-22T23:55:10.652Z,12.3
